sensor_id;sensor_type;location;lat;lon;timestamp;temperature;humidity
43651;DHT22;29247;50.944;5.382;2023-12-20T00:00:08;18.90;72.70
43651;DHT22;29247;50.944;5.382;2023-12-20T00:02:36;18.90;72.70
43651;DHT22;29247;50.944;5.382;2023-12-20T00:05:02;18.90;72.70
43651;DHT22;29247;50.944;5.382;2023-12-20T00:07:28;18.80;72.60
43651;DHT22;29247;50.944;5.382;2023-12-20T00:09:53;18.80;73.30
43651;DHT22;29247;50.944;5.382;2023-12-20T00:12:19;18.80;72.50
43651;DHT22;29247;50.944;5.382;2023-12-20T00:14:45;18.70;72.50
43651;DHT22;29247;50.944;5.382;2023-12-20T00:17:10;18.80;72.60
43651;DHT22;29247;50.944;5.382;2023-12-20T00:19:36;18.70;72.60
43651;DHT22;29247;50.944;5.382;2023-12-20T00:22:04;18.70;72.50
43651;DHT22;29247;50.944;5.382;2023-12-20T00:24:30;18.70;72.50
43651;DHT22;29247;50.944;5.382;2023-12-20T00:26:58;18.60;72.50
43651;DHT22;29247;50.944;5.382;2023-12-20T00:29:26;18.60;72.60
43651;DHT22;29247;50.944;5.382;2023-12-20T00:31:53;18.60;72.60
43651;DHT22;29247;50.944;5.382;2023-12-20T00:34:19;18.50;72.50
43651;DHT22;29247;50.944;5.382;2023-12-20T00:36:45;18.50;72.50
43651;DHT22;29247;50.944;5.382;2023-12-20T00:39:10;18.40;72.60
43651;DHT22;29247;50.944;5.382;2023-12-20T00:41:36;18.40;72.60
43651;DHT22;29247;50.944;5.382;2023-12-20T00:44:02;18.40;72.60
43651;DHT22;29247;50.944;5.382;2023-12-20T00:46:30;18.40;72.60
43651;DHT22;29247;50.944;5.382;2023-12-20T00:48:55;18.30;72.60
43651;DHT22;29247;50.944;5.382;2023-12-20T00:51:21;18.30;72.70
43651;DHT22;29247;50.944;5.382;2023-12-20T00:53:49;18.30;72.70
43651;DHT22;29247;50.944;5.382;2023-12-20T00:56:15;18.30;72.80
43651;DHT22;29247;50.944;5.382;2023-12-20T00:58:41;18.30;72.80
43651;DHT22;29247;50.944;5.382;2023-12-20T01:01:09;18.20;72.80
43651;DHT22;29247;50.944;5.382;2023-12-20T01:03:34;18.20;72.80
43651;DHT22;29247;50.944;5.382;2023-12-20T01:06:02;18.20;72.90
43651;DHT22;29247;50.944;5.382;2023-12-20T01:08:30;18.20;73.00
43651;DHT22;29247;50.944;5.382;2023-12-20T01:10:55;18.10;72.90
43651;DHT22;29247;50.944;5.382;2023-12-20T01:13:21;18.10;72.90
43651;DHT22;29247;50.944;5.382;2023-12-20T01:15:47;18.10;72.90
43651;DHT22;29247;50.944;5.382;2023-12-20T01:18:14;18.10;73.00
43651;DHT22;29247;50.944;5.382;2023-12-20T01:20:40;18.00;72.90
43651;DHT22;29247;50.944;5.382;2023-12-20T01:23:06;18.00;73.00
43651;DHT22;29247;50.944;5.382;2023-12-20T01:25:34;18.00;73.10
43651;DHT22;29247;50.944;5.382;2023-12-20T01:28:02;18.00;73.10
43651;DHT22;29247;50.944;5.382;2023-12-20T01:30:28;18.00;73.20
43651;DHT22;29247;50.944;5.382;2023-12-20T01:32:54;17.90;73.10
43651;DHT22;29247;50.944;5.382;2023-12-20T01:35:22;17.90;73.10
43651;DHT22;29247;50.944;5.382;2023-12-20T01:37:52;17.90;73.10
43651;DHT22;29247;50.944;5.382;2023-12-20T01:40:22;17.80;73.20
43651;DHT22;29247;50.944;5.382;2023-12-20T01:42:57;17.80;73.20
43651;DHT22;29247;50.944;5.382;2023-12-20T01:45:23;17.80;74.00
43651;DHT22;29247;50.944;5.382;2023-12-20T01:47:48;17.80;73.20
43651;DHT22;29247;50.944;5.382;2023-12-20T01:50:14;17.80;73.30
43651;DHT22;29247;50.944;5.382;2023-12-20T01:52:41;17.70;73.30
43651;DHT22;29247;50.944;5.382;2023-12-20T01:55:08;17.70;73.30
43651;DHT22;29247;50.944;5.382;2023-12-20T01:57:40;17.70;73.40
43651;DHT22;29247;50.944;5.382;2023-12-20T02:00:07;17.70;73.40
43651;DHT22;29247;50.944;5.382;2023-12-20T02:02:37;17.60;73.40
43651;DHT22;29247;50.944;5.382;2023-12-20T02:05:07;17.60;73.40
43651;DHT22;29247;50.944;5.382;2023-12-20T02:07:33;17.60;73.50
43651;DHT22;29247;50.944;5.382;2023-12-20T02:10:02;17.60;73.60
43651;DHT22;29247;50.944;5.382;2023-12-20T02:12:30;17.60;73.60
43651;DHT22;29247;50.944;5.382;2023-12-20T02:14:55;17.50;73.60
43651;DHT22;29247;50.944;5.382;2023-12-20T02:17:22;17.50;73.60
43651;DHT22;29247;50.944;5.382;2023-12-20T02:19:50;17.50;73.70
43651;DHT22;29247;50.944;5.382;2023-12-20T02:22:16;17.50;73.70
43651;DHT22;29247;50.944;5.382;2023-12-20T02:24:42;17.40;73.70
43651;DHT22;29247;50.944;5.382;2023-12-20T02:27:08;17.40;73.80
43651;DHT22;29247;50.944;5.382;2023-12-20T02:29:34;17.40;73.80
43651;DHT22;29247;50.944;5.382;2023-12-20T02:32:00;17.40;73.90
43651;DHT22;29247;50.944;5.382;2023-12-20T02:34:26;17.30;73.90
43651;DHT22;29247;50.944;5.382;2023-12-20T02:36:54;17.30;73.90
43651;DHT22;29247;50.944;5.382;2023-12-20T02:39:21;17.30;74.00
43651;DHT22;29247;50.944;5.382;2023-12-20T02:41:48;17.30;74.00
43651;DHT22;29247;50.944;5.382;2023-12-20T02:44:14;17.30;74.10
43651;DHT22;29247;50.944;5.382;2023-12-20T02:46:42;17.20;74.00
43651;DHT22;29247;50.944;5.382;2023-12-20T02:49:09;17.30;74.30
43651;DHT22;29247;50.944;5.382;2023-12-20T02:51:35;17.20;74.20
43651;DHT22;29247;50.944;5.382;2023-12-20T02:54:04;17.20;74.20
43651;DHT22;29247;50.944;5.382;2023-12-20T02:56:29;17.20;74.30
43651;DHT22;29247;50.944;5.382;2023-12-20T02:58:55;17.10;74.30
43651;DHT22;29247;50.944;5.382;2023-12-20T03:01:21;17.10;74.30
43651;DHT22;29247;50.944;5.382;2023-12-20T03:03:46;17.10;74.30
43651;DHT22;29247;50.944;5.382;2023-12-20T03:06:20;17.10;74.40
43651;DHT22;29247;50.944;5.382;2023-12-20T03:08:46;17.10;74.40
43651;DHT22;29247;50.944;5.382;2023-12-20T03:11:11;17.00;74.40
43651;DHT22;29247;50.944;5.382;2023-12-20T03:13:37;17.00;74.50
43651;DHT22;29247;50.944;5.382;2023-12-20T03:16:13;17.00;74.50
43651;DHT22;29247;50.944;5.382;2023-12-20T03:18:41;17.00;74.70
43651;DHT22;29247;50.944;5.382;2023-12-20T03:21:07;17.00;74.60
43651;DHT22;29247;50.944;5.382;2023-12-20T03:23:33;16.90;74.60
43651;DHT22;29247;50.944;5.382;2023-12-20T03:26:01;16.90;74.60
43651;DHT22;29247;50.944;5.382;2023-12-20T03:28:27;16.90;74.70
43651;DHT22;29247;50.944;5.382;2023-12-20T03:30:53;16.90;74.70
43651;DHT22;29247;50.944;5.382;2023-12-20T03:33:18;16.90;74.80
43651;DHT22;29247;50.944;5.382;2023-12-20T03:35:44;16.90;74.80
43651;DHT22;29247;50.944;5.382;2023-12-20T03:38:10;16.90;74.80
43651;DHT22;29247;50.944;5.382;2023-12-20T03:40:35;16.90;74.90
43651;DHT22;29247;50.944;5.382;2023-12-20T03:43:01;16.90;74.90
43651;DHT22;29247;50.944;5.382;2023-12-20T03:45:27;16.80;74.90
43651;DHT22;29247;50.944;5.382;2023-12-20T03:47:52;16.80;75.00
43651;DHT22;29247;50.944;5.382;2023-12-20T03:50:26;16.80;75.00
43651;DHT22;29247;50.944;5.382;2023-12-20T03:52:52;16.80;75.10
43651;DHT22;29247;50.944;5.382;2023-12-20T03:55:18;16.80;75.10
43651;DHT22;29247;50.944;5.382;2023-12-20T03:57:43;16.80;75.30
43651;DHT22;29247;50.944;5.382;2023-12-20T04:00:12;16.80;75.50
43651;DHT22;29247;50.944;5.382;2023-12-20T04:02:41;16.90;75.80
43651;DHT22;29247;50.944;5.382;2023-12-20T04:05:08;16.90;75.90
43651;DHT22;29247;50.944;5.382;2023-12-20T04:07:35;17.00;76.00
43651;DHT22;29247;50.944;5.382;2023-12-20T04:10:03;17.10;76.00
43651;DHT22;29247;50.944;5.382;2023-12-20T04:12:29;17.20;76.00
43651;DHT22;29247;50.944;5.382;2023-12-20T04:14:57;17.40;76.00
43651;DHT22;29247;50.944;5.382;2023-12-20T04:17:23;17.50;75.90
43651;DHT22;29247;50.944;5.382;2023-12-20T04:19:49;17.60;75.70
43651;DHT22;29247;50.944;5.382;2023-12-20T04:22:16;17.70;75.40
43651;DHT22;29247;50.944;5.382;2023-12-20T04:24:45;17.90;75.20
43651;DHT22;29247;50.944;5.382;2023-12-20T04:27:13;18.00;74.80
43651;DHT22;29247;50.944;5.382;2023-12-20T04:29:38;18.20;75.20
43651;DHT22;29247;50.944;5.382;2023-12-20T04:32:04;18.30;74.00
43651;DHT22;29247;50.944;5.382;2023-12-20T04:34:32;18.40;73.60
43651;DHT22;29247;50.944;5.382;2023-12-20T04:37:00;18.50;73.10
43651;DHT22;29247;50.944;5.382;2023-12-20T04:39:27;18.50;72.70
43651;DHT22;29247;50.944;5.382;2023-12-20T04:41:52;18.60;72.50
43651;DHT22;29247;50.944;5.382;2023-12-20T04:44:18;18.70;72.20
43651;DHT22;29247;50.944;5.382;2023-12-20T04:46:44;18.70;72.00
43651;DHT22;29247;50.944;5.382;2023-12-20T04:49:09;18.80;71.80
43651;DHT22;29247;50.944;5.382;2023-12-20T04:51:35;18.90;71.60
43651;DHT22;29247;50.944;5.382;2023-12-20T04:54:02;18.90;71.50
43651;DHT22;29247;50.944;5.382;2023-12-20T04:56:32;19.00;71.30
43651;DHT22;29247;50.944;5.382;2023-12-20T04:59:00;19.00;71.00
43651;DHT22;29247;50.944;5.382;2023-12-20T05:01:26;19.10;70.80
43651;DHT22;29247;50.944;5.382;2023-12-20T05:03:54;19.10;70.50
43651;DHT22;29247;50.944;5.382;2023-12-20T05:06:20;19.20;70.30
43651;DHT22;29247;50.944;5.382;2023-12-20T05:08:46;19.20;70.10
43651;DHT22;29247;50.944;5.382;2023-12-20T05:11:11;19.20;69.90
43651;DHT22;29247;50.944;5.382;2023-12-20T05:13:39;19.30;69.80
43651;DHT22;29247;50.944;5.382;2023-12-20T05:16:05;19.30;69.60
43651;DHT22;29247;50.944;5.382;2023-12-20T05:18:31;19.30;69.50
43651;DHT22;29247;50.944;5.382;2023-12-20T05:20:56;19.30;69.40
43651;DHT22;29247;50.944;5.382;2023-12-20T05:23:25;19.30;69.30
43651;DHT22;29247;50.944;5.382;2023-12-20T05:25:50;19.30;69.20
43651;DHT22;29247;50.944;5.382;2023-12-20T05:28:16;19.30;69.10
43651;DHT22;29247;50.944;5.382;2023-12-20T05:30:41;19.30;69.00
43651;DHT22;29247;50.944;5.382;2023-12-20T05:33:07;19.30;69.00
43651;DHT22;29247;50.944;5.382;2023-12-20T05:35:33;19.30;69.00
43651;DHT22;29247;50.944;5.382;2023-12-20T05:37:58;19.30;69.10
43651;DHT22;29247;50.944;5.382;2023-12-20T05:40:24;19.30;69.20
43651;DHT22;29247;50.944;5.382;2023-12-20T05:42:50;19.30;69.30
43651;DHT22;29247;50.944;5.382;2023-12-20T05:45:17;19.30;69.30
43651;DHT22;29247;50.944;5.382;2023-12-20T05:47:43;19.40;69.30
43651;DHT22;29247;50.944;5.382;2023-12-20T05:50:09;19.40;69.20
43651;DHT22;29247;50.944;5.382;2023-12-20T05:52:34;19.50;69.20
43651;DHT22;29247;50.944;5.382;2023-12-20T05:55:02;19.60;69.20
43651;DHT22;29247;50.944;5.382;2023-12-20T05:57:28;19.60;69.10
43651;DHT22;29247;50.944;5.382;2023-12-20T05:59:53;19.70;68.90
43651;DHT22;29247;50.944;5.382;2023-12-20T06:02:19;19.80;68.90
43651;DHT22;29247;50.944;5.382;2023-12-20T06:04:45;19.90;68.70
43651;DHT22;29247;50.944;5.382;2023-12-20T06:07:14;19.90;68.50
43651;DHT22;29247;50.944;5.382;2023-12-20T06:09:42;20.00;68.40
43651;DHT22;29247;50.944;5.382;2023-12-20T06:12:08;20.10;68.20
43651;DHT22;29247;50.944;5.382;2023-12-20T06:14:34;20.10;68.00
43651;DHT22;29247;50.944;5.382;2023-12-20T06:17:00;20.20;67.80
43651;DHT22;29247;50.944;5.382;2023-12-20T06:19:27;20.30;67.70
43651;DHT22;29247;50.944;5.382;2023-12-20T06:21:53;20.30;67.50
43651;DHT22;29247;50.944;5.382;2023-12-20T06:24:23;20.40;67.30
43651;DHT22;29247;50.944;5.382;2023-12-20T06:26:52;20.50;67.30
43651;DHT22;29247;50.944;5.382;2023-12-20T06:29:18;20.60;67.10
43651;DHT22;29247;50.944;5.382;2023-12-20T06:31:43;20.60;66.90
43651;DHT22;29247;50.944;5.382;2023-12-20T06:34:12;20.70;66.90
43651;DHT22;29247;50.944;5.382;2023-12-20T06:36:37;20.70;66.80
43651;DHT22;29247;50.944;5.382;2023-12-20T06:39:05;20.80;66.80
43651;DHT22;29247;50.944;5.382;2023-12-20T06:41:34;20.90;66.70
43651;DHT22;29247;50.944;5.382;2023-12-20T06:43:59;20.90;66.50
43651;DHT22;29247;50.944;5.382;2023-12-20T06:46:25;21.00;66.40
43651;DHT22;29247;50.944;5.382;2023-12-20T06:48:51;21.00;66.20
43651;DHT22;29247;50.944;5.382;2023-12-20T06:51:17;21.00;66.00
43651;DHT22;29247;50.944;5.382;2023-12-20T06:53:45;21.10;65.90
43651;DHT22;29247;50.944;5.382;2023-12-20T06:56:13;21.10;65.80
43651;DHT22;29247;50.944;5.382;2023-12-20T06:58:38;21.10;65.60
43651;DHT22;29247;50.944;5.382;2023-12-20T07:01:04;21.00;65.50
43651;DHT22;29247;50.944;5.382;2023-12-20T07:03:31;21.00;65.40
43651;DHT22;29247;50.944;5.382;2023-12-20T07:08:09;21.00;64.80
43651;DHT22;29247;50.944;5.382;2023-12-20T07:10:36;21.00;65.50
43651;DHT22;29247;50.944;5.382;2023-12-20T07:13:04;20.90;65.60
43651;DHT22;29247;50.944;5.382;2023-12-20T07:15:29;21.00;65.70
43651;DHT22;29247;50.944;5.382;2023-12-20T07:17:57;20.90;65.70
43651;DHT22;29247;50.944;5.382;2023-12-20T07:20:25;21.00;65.90
43651;DHT22;29247;50.944;5.382;2023-12-20T07:22:55;20.90;65.80
43651;DHT22;29247;50.944;5.382;2023-12-20T07:25:23;21.00;65.90
43651;DHT22;29247;50.944;5.382;2023-12-20T07:27:49;21.00;65.90
43651;DHT22;29247;50.944;5.382;2023-12-20T07:30:14;21.10;65.90
43651;DHT22;29247;50.944;5.382;2023-12-20T07:32:42;21.10;65.80
43651;DHT22;29247;50.944;5.382;2023-12-20T07:35:08;21.20;65.80
43651;DHT22;29247;50.944;5.382;2023-12-20T07:37:34;21.20;65.50
43651;DHT22;29247;50.944;5.382;2023-12-20T07:39:59;21.30;65.40
43651;DHT22;29247;50.944;5.382;2023-12-20T07:42:25;21.30;65.30
43651;DHT22;29247;50.944;5.382;2023-12-20T07:44:53;21.40;65.10
43651;DHT22;29247;50.944;5.382;2023-12-20T07:47:19;21.40;65.00
43651;DHT22;29247;50.944;5.382;2023-12-20T07:49:48;21.50;64.80
43651;DHT22;29247;50.944;5.382;2023-12-20T07:52:14;21.60;64.60
43651;DHT22;29247;50.944;5.382;2023-12-20T07:54:40;21.60;64.40
43651;DHT22;29247;50.944;5.382;2023-12-20T07:57:10;21.70;64.30
43651;DHT22;29247;50.944;5.382;2023-12-20T07:59:36;21.70;64.00
43651;DHT22;29247;50.944;5.382;2023-12-20T08:02:04;21.80;63.90
43651;DHT22;29247;50.944;5.382;2023-12-20T08:04:30;21.80;63.80
43651;DHT22;29247;50.944;5.382;2023-12-20T08:06:56;21.90;63.60
43651;DHT22;29247;50.944;5.382;2023-12-20T08:09:26;21.90;63.40
43651;DHT22;29247;50.944;5.382;2023-12-20T08:11:51;22.00;63.30
43651;DHT22;29247;50.944;5.382;2023-12-20T08:14:17;22.00;63.10
43651;DHT22;29247;50.944;5.382;2023-12-20T08:16:45;22.10;63.00
43651;DHT22;29247;50.944;5.382;2023-12-20T08:19:10;22.10;62.80
43651;DHT22;29247;50.944;5.382;2023-12-20T08:21:36;22.10;62.70
43651;DHT22;29247;50.944;5.382;2023-12-20T08:24:02;22.20;62.60
43651;DHT22;29247;50.944;5.382;2023-12-20T08:26:28;22.20;62.40
43651;DHT22;29247;50.944;5.382;2023-12-20T08:28:53;22.30;62.30
43651;DHT22;29247;50.944;5.382;2023-12-20T08:31:22;22.30;62.20
43651;DHT22;29247;50.944;5.382;2023-12-20T08:33:48;22.30;62.00
43651;DHT22;29247;50.944;5.382;2023-12-20T08:36:14;22.40;61.90
43651;DHT22;29247;50.944;5.382;2023-12-20T08:38:42;22.40;61.80
43651;DHT22;29247;50.944;5.382;2023-12-20T08:41:08;22.50;62.10
43651;DHT22;29247;50.944;5.382;2023-12-20T08:43:34;22.50;61.50
43651;DHT22;29247;50.944;5.382;2023-12-20T08:46:00;22.60;61.40
43651;DHT22;29247;50.944;5.382;2023-12-20T08:48:29;22.60;61.20
43651;DHT22;29247;50.944;5.382;2023-12-20T08:50:54;22.60;61.10
43651;DHT22;29247;50.944;5.382;2023-12-20T08:53:22;22.60;60.80
43651;DHT22;29247;50.944;5.382;2023-12-20T08:55:50;22.70;60.70
43651;DHT22;29247;50.944;5.382;2023-12-20T08:58:18;22.70;60.50
43651;DHT22;29247;50.944;5.382;2023-12-20T09:00:46;22.70;60.30
43651;DHT22;29247;50.944;5.382;2023-12-20T09:03:12;22.70;60.30
43651;DHT22;29247;50.944;5.382;2023-12-20T09:05:37;22.70;60.10
43651;DHT22;29247;50.944;5.382;2023-12-20T09:08:03;22.80;60.00
43651;DHT22;29247;50.944;5.382;2023-12-20T09:10:31;22.80;60.00
43651;DHT22;29247;50.944;5.382;2023-12-20T09:12:57;22.80;59.80
43651;DHT22;29247;50.944;5.382;2023-12-20T09:15:26;22.80;59.70
43651;DHT22;29247;50.944;5.382;2023-12-20T09:17:55;22.80;59.70
43651;DHT22;29247;50.944;5.382;2023-12-20T09:20:22;22.90;59.70
43651;DHT22;29247;50.944;5.382;2023-12-20T09:22:49;22.90;59.70
43651;DHT22;29247;50.944;5.382;2023-12-20T09:25:17;23.00;59.60
43651;DHT22;29247;50.944;5.382;2023-12-20T09:27:45;23.00;59.50
43651;DHT22;29247;50.944;5.382;2023-12-20T09:30:12;23.00;59.40
43651;DHT22;29247;50.944;5.382;2023-12-20T09:32:38;23.10;59.40
43651;DHT22;29247;50.944;5.382;2023-12-20T09:35:04;23.10;59.20
43651;DHT22;29247;50.944;5.382;2023-12-20T09:37:34;23.20;59.20
43651;DHT22;29247;50.944;5.382;2023-12-20T09:39:59;23.20;59.10
43651;DHT22;29247;50.944;5.382;2023-12-20T09:42:36;23.10;59.00
43651;DHT22;29247;50.944;5.382;2023-12-20T09:45:04;23.10;59.00
43651;DHT22;29247;50.944;5.382;2023-12-20T09:47:32;23.20;58.90
43651;DHT22;29247;50.944;5.382;2023-12-20T09:49:58;23.20;58.80
43651;DHT22;29247;50.944;5.382;2023-12-20T09:52:24;23.20;58.80
43651;DHT22;29247;50.944;5.382;2023-12-20T09:54:53;23.20;58.80
43651;DHT22;29247;50.944;5.382;2023-12-20T09:57:20;23.10;58.70
43651;DHT22;29247;50.944;5.382;2023-12-20T09:59:48;23.10;58.80
43651;DHT22;29247;50.944;5.382;2023-12-20T10:02:14;23.10;58.80
43651;DHT22;29247;50.944;5.382;2023-12-20T10:04:50;23.10;58.80
43651;DHT22;29247;50.944;5.382;2023-12-20T10:07:16;23.10;58.80
43651;DHT22;29247;50.944;5.382;2023-12-20T10:09:42;23.10;58.80
43651;DHT22;29247;50.944;5.382;2023-12-20T10:12:08;23.00;58.80
43651;DHT22;29247;50.944;5.382;2023-12-20T10:14:34;22.90;58.80
43651;DHT22;29247;50.944;5.382;2023-12-20T10:17:04;22.90;58.80
43651;DHT22;29247;50.944;5.382;2023-12-20T10:19:32;22.90;58.80
43651;DHT22;29247;50.944;5.382;2023-12-20T10:22:04;22.90;58.80
43651;DHT22;29247;50.944;5.382;2023-12-20T10:24:30;22.80;58.80
43651;DHT22;29247;50.944;5.382;2023-12-20T10:27:04;22.80;58.80
43651;DHT22;29247;50.944;5.382;2023-12-20T10:29:35;22.70;58.90
43651;DHT22;29247;50.944;5.382;2023-12-20T10:32:14;22.60;58.90
43651;DHT22;29247;50.944;5.382;2023-12-20T10:34:48;22.60;59.00
43651;DHT22;29247;50.944;5.382;2023-12-20T10:37:14;22.40;59.10
43651;DHT22;29247;50.944;5.382;2023-12-20T10:39:42;22.30;59.30
43651;DHT22;29247;50.944;5.382;2023-12-20T10:42:12;22.30;59.50
43651;DHT22;29247;50.944;5.382;2023-12-20T10:44:38;22.20;59.60
43651;DHT22;29247;50.944;5.382;2023-12-20T10:47:05;22.20;59.70
43651;DHT22;29247;50.944;5.382;2023-12-20T10:49:35;22.10;59.80
43651;DHT22;29247;50.944;5.382;2023-12-20T10:52:02;22.00;59.90
43651;DHT22;29247;50.944;5.382;2023-12-20T10:54:32;22.00;60.10
43651;DHT22;29247;50.944;5.382;2023-12-20T10:57:00;21.90;60.30
43651;DHT22;29247;50.944;5.382;2023-12-20T10:59:29;21.80;60.30
43651;DHT22;29247;50.944;5.382;2023-12-20T11:02:02;21.80;60.50
43651;DHT22;29247;50.944;5.382;2023-12-20T11:04:50;21.70;60.60
43651;DHT22;29247;50.944;5.382;2023-12-20T11:07:35;21.70;60.70
43651;DHT22;29247;50.944;5.382;2023-12-20T11:10:23;21.60;60.80
43651;DHT22;29247;50.944;5.382;2023-12-20T11:13:16;21.60;61.10
43651;DHT22;29247;50.944;5.382;2023-12-20T11:15:43;21.50;61.10
43651;DHT22;29247;50.944;5.382;2023-12-20T11:18:09;21.50;61.20
43651;DHT22;29247;50.944;5.382;2023-12-20T11:20:42;21.40;61.20
43651;DHT22;29247;50.944;5.382;2023-12-20T11:23:10;21.40;61.40
43651;DHT22;29247;50.944;5.382;2023-12-20T11:25:51;21.40;61.70
43651;DHT22;29247;50.944;5.382;2023-12-20T11:28:24;21.30;61.90
43651;DHT22;29247;50.944;5.382;2023-12-20T11:30:53;21.40;62.20
43651;DHT22;29247;50.944;5.382;2023-12-20T11:33:23;21.40;62.50
43651;DHT22;29247;50.944;5.382;2023-12-20T11:35:49;21.40;62.60
43651;DHT22;29247;50.944;5.382;2023-12-20T11:38:15;21.50;62.70
43651;DHT22;29247;50.944;5.382;2023-12-20T11:40:42;21.50;62.60
43651;DHT22;29247;50.944;5.382;2023-12-20T11:43:10;21.60;62.40
43651;DHT22;29247;50.944;5.382;2023-12-20T11:45:38;21.70;62.30
43651;DHT22;29247;50.944;5.382;2023-12-20T11:48:17;21.80;62.20
43651;DHT22;29247;50.944;5.382;2023-12-20T11:50:45;21.80;61.90
43651;DHT22;29247;50.944;5.382;2023-12-20T11:53:10;21.90;61.70
43651;DHT22;29247;50.944;5.382;2023-12-20T11:55:39;22.00;61.70
43651;DHT22;29247;50.944;5.382;2023-12-20T11:58:04;22.00;61.60
43651;DHT22;29247;50.944;5.382;2023-12-20T12:00:30;22.10;61.40
43651;DHT22;29247;50.944;5.382;2023-12-20T12:02:57;22.20;61.30
43651;DHT22;29247;50.944;5.382;2023-12-20T12:05:23;22.30;61.10
43651;DHT22;29247;50.944;5.382;2023-12-20T12:07:51;22.30;60.90
43651;DHT22;29247;50.944;5.382;2023-12-20T12:10:17;22.40;60.70
43651;DHT22;29247;50.944;5.382;2023-12-20T12:12:42;22.40;60.50
43651;DHT22;29247;50.944;5.382;2023-12-20T12:15:11;22.60;60.40
43651;DHT22;29247;50.944;5.382;2023-12-20T12:17:42;22.60;60.10
43651;DHT22;29247;50.944;5.382;2023-12-20T12:20:08;22.70;60.00
43651;DHT22;29247;50.944;5.382;2023-12-20T12:22:35;22.80;59.90
43651;DHT22;29247;50.944;5.382;2023-12-20T12:25:14;22.80;59.70
43651;DHT22;29247;50.944;5.382;2023-12-20T12:27:41;22.80;59.60
43651;DHT22;29247;50.944;5.382;2023-12-20T12:30:08;22.90;59.50
43651;DHT22;29247;50.944;5.382;2023-12-20T12:32:35;22.90;59.40
43651;DHT22;29247;50.944;5.382;2023-12-20T12:35:08;23.00;59.30
43651;DHT22;29247;50.944;5.382;2023-12-20T12:37:40;23.10;59.20
43651;DHT22;29247;50.944;5.382;2023-12-20T12:40:17;23.10;59.10
43651;DHT22;29247;50.944;5.382;2023-12-20T12:42:44;23.10;59.10
43651;DHT22;29247;50.944;5.382;2023-12-20T12:45:11;23.20;59.10
43651;DHT22;29247;50.944;5.382;2023-12-20T12:47:37;23.20;59.00
43651;DHT22;29247;50.944;5.382;2023-12-20T12:50:03;23.30;59.00
43651;DHT22;29247;50.944;5.382;2023-12-20T12:52:30;23.30;59.00
43651;DHT22;29247;50.944;5.382;2023-12-20T12:54:56;23.40;58.90
43651;DHT22;29247;50.944;5.382;2023-12-20T12:57:22;23.40;58.80
43651;DHT22;29247;50.944;5.382;2023-12-20T12:59:47;23.40;58.80
43651;DHT22;29247;50.944;5.382;2023-12-20T13:02:13;23.50;58.80
43651;DHT22;29247;50.944;5.382;2023-12-20T13:04:42;23.50;58.80
43651;DHT22;29247;50.944;5.382;2023-12-20T13:07:09;23.50;58.70
43651;DHT22;29247;50.944;5.382;2023-12-20T13:09:37;23.50;58.80
43651;DHT22;29247;50.944;5.382;2023-12-20T13:12:04;23.50;58.70
43651;DHT22;29247;50.944;5.382;2023-12-20T13:14:33;23.50;58.70
43651;DHT22;29247;50.944;5.382;2023-12-20T13:16:58;23.40;58.70
43651;DHT22;29247;50.944;5.382;2023-12-20T13:19:24;23.40;58.70
43651;DHT22;29247;50.944;5.382;2023-12-20T13:21:50;23.40;58.80
43651;DHT22;29247;50.944;5.382;2023-12-20T13:24:15;23.30;58.80
43651;DHT22;29247;50.944;5.382;2023-12-20T13:26:41;23.30;58.80
43651;DHT22;29247;50.944;5.382;2023-12-20T13:29:07;23.30;58.90
43651;DHT22;29247;50.944;5.382;2023-12-20T13:31:32;23.20;59.00
43651;DHT22;29247;50.944;5.382;2023-12-20T13:33:58;23.10;59.00
43651;DHT22;29247;50.944;5.382;2023-12-20T13:36:24;23.10;59.10
43651;DHT22;29247;50.944;5.382;2023-12-20T13:38:50;23.10;59.20
43651;DHT22;29247;50.944;5.382;2023-12-20T13:41:15;23.00;59.20
43651;DHT22;29247;50.944;5.382;2023-12-20T13:43:43;22.90;59.20
43651;DHT22;29247;50.944;5.382;2023-12-20T13:46:09;22.90;59.40
43651;DHT22;29247;50.944;5.382;2023-12-20T13:48:34;22.80;59.40
43651;DHT22;29247;50.944;5.382;2023-12-20T13:51:00;22.80;59.60
43651;DHT22;29247;50.944;5.382;2023-12-20T13:53:28;22.70;59.60
43651;DHT22;29247;50.944;5.382;2023-12-20T13:55:54;22.70;59.80
43651;DHT22;29247;50.944;5.382;2023-12-20T13:58:19;22.60;59.80
43651;DHT22;29247;50.944;5.382;2023-12-20T14:00:45;22.50;59.80
43651;DHT22;29247;50.944;5.382;2023-12-20T14:03:11;22.40;59.90
43651;DHT22;29247;50.944;5.382;2023-12-20T14:05:37;22.40;60.00
43651;DHT22;29247;50.944;5.382;2023-12-20T14:08:03;22.30;60.10
43651;DHT22;29247;50.944;5.382;2023-12-20T14:10:29;22.20;60.30
43651;DHT22;29247;50.944;5.382;2023-12-20T14:12:55;22.20;60.40
43651;DHT22;29247;50.944;5.382;2023-12-20T14:15:21;22.10;60.50
43651;DHT22;29247;50.944;5.382;2023-12-20T14:17:47;22.00;60.60
43651;DHT22;29247;50.944;5.382;2023-12-20T14:20:12;22.00;60.80
43651;DHT22;29247;50.944;5.382;2023-12-20T14:22:38;21.90;60.90
43651;DHT22;29247;50.944;5.382;2023-12-20T14:25:11;21.80;61.00
43651;DHT22;29247;50.944;5.382;2023-12-20T14:27:38;21.80;61.10
43651;DHT22;29247;50.944;5.382;2023-12-20T14:30:06;21.70;61.20
43651;DHT22;29247;50.944;5.382;2023-12-20T14:32:34;21.70;61.30
43651;DHT22;29247;50.944;5.382;2023-12-20T14:35:02;21.60;61.40
43651;DHT22;29247;50.944;5.382;2023-12-20T14:37:29;21.60;61.50
43651;DHT22;29247;50.944;5.382;2023-12-20T14:39:55;21.50;61.50
43651;DHT22;29247;50.944;5.382;2023-12-20T14:42:21;21.40;61.60
43651;DHT22;29247;50.944;5.382;2023-12-20T14:44:48;21.40;61.80
43651;DHT22;29247;50.944;5.382;2023-12-20T14:47:14;21.30;62.10
43651;DHT22;29247;50.944;5.382;2023-12-20T14:49:41;21.30;62.40
43651;DHT22;29247;50.944;5.382;2023-12-20T14:52:08;21.30;62.70
43651;DHT22;29247;50.944;5.382;2023-12-20T14:54:37;21.30;63.60
43651;DHT22;29247;50.944;5.382;2023-12-20T14:57:03;21.30;63.00
43651;DHT22;29247;50.944;5.382;2023-12-20T14:59:28;21.30;63.20
43651;DHT22;29247;50.944;5.382;2023-12-20T15:01:54;21.40;63.40
43651;DHT22;29247;50.944;5.382;2023-12-20T15:04:20;21.40;63.40
43651;DHT22;29247;50.944;5.382;2023-12-20T15:06:54;21.50;63.30
43651;DHT22;29247;50.944;5.382;2023-12-20T15:09:20;21.60;63.20
43651;DHT22;29247;50.944;5.382;2023-12-20T15:11:46;21.60;63.00
43651;DHT22;29247;50.944;5.382;2023-12-20T15:14:11;21.70;62.90
43651;DHT22;29247;50.944;5.382;2023-12-20T15:16:40;21.80;62.70
43651;DHT22;29247;50.944;5.382;2023-12-20T15:19:05;21.80;62.50
43651;DHT22;29247;50.944;5.382;2023-12-20T15:21:31;21.90;62.30
43651;DHT22;29247;50.944;5.382;2023-12-20T15:23:59;22.00;62.20
43651;DHT22;29247;50.944;5.382;2023-12-20T15:26:38;22.00;62.00
43651;DHT22;29247;50.944;5.382;2023-12-20T15:29:09;22.10;61.90
43651;DHT22;29247;50.944;5.382;2023-12-20T15:31:36;22.20;61.60